createdAt,value
2022-08-17T00:02:26.092Z,87.13
2022-08-17T00:17:29.365Z,86.84
2022-08-17T00:33:22.800Z,87.30
2022-08-17T00:48:04.132Z,87.54
2022-08-17T01:03:26.369Z,87.48
2022-08-17T01:18:28.986Z,87.52
2022-08-17T01:33:31.092Z,87.08
2022-08-17T01:48:36.168Z,87.45
2022-08-17T02:03:38.966Z,87.37
2022-08-17T02:18:41.784Z,87.49
2022-08-17T02:33:43.925Z,88.09
2022-08-17T02:48:46.005Z,88.30
2022-08-17T03:03:48.326Z,87.59
2022-08-17T03:18:50.365Z,88.28
2022-08-17T03:33:52.326Z,88.30
2022-08-17T03:49:13.067Z,88.11
2022-08-17T04:04:15.307Z,88.09
2022-08-17T04:19:17.298Z,88.91
2022-08-17T04:34:19.994Z,87.31
2022-08-17T04:49:22.434Z,85.45
2022-08-17T05:04:33.802Z,84.32
2022-08-17T05:19:37.434Z,84.23
2022-08-17T05:34:39.586Z,84.01
2022-08-17T05:49:41.750Z,82.86
2022-08-17T06:05:01.127Z,81.31
2022-08-17T06:20:09.049Z,80.88
2022-08-17T06:35:14.383Z,79.73
2022-08-17T06:50:36.249Z,79.11
2022-08-17T07:05:41.367Z,77.35
2022-08-17T07:20:49.656Z,76.11
2022-08-17T07:35:53.953Z,73.88
2022-08-17T07:50:56.175Z,72.91
2022-08-17T08:06:02.394Z,71.42
2022-08-17T08:21:09.712Z,68.37
2022-08-17T08:36:59.343Z,68.16
2022-08-17T08:52:25.149Z,65.55
2022-08-17T09:07:56.273Z,66.10
2022-08-17T09:23:14.026Z,64.77
2022-08-17T09:38:34.626Z,62.23
2022-08-17T09:53:38.407Z,60.16
2022-08-17T10:08:53.327Z,61.56
2022-08-17T10:24:39.267Z,60.47
2022-08-17T10:39:53.846Z,58.20
2022-08-17T10:54:58.120Z,57.42
2022-08-17T11:10:19.386Z,56.43
2022-08-17T11:25:32.386Z,55.94
2022-08-17T11:40:37.512Z,57.40
2022-08-17T11:55:43.110Z,55.71
2022-08-17T12:11:01.825Z,52.16
2022-08-17T12:26:19.813Z,52.67
2022-08-17T12:41:41.865Z,53.27
2022-08-17T12:56:46.366Z,52.30
2022-08-17T13:12:02.073Z,52.27
2022-08-17T13:27:08.687Z,54.10
2022-08-17T13:42:33.049Z,54.41
2022-08-17T13:57:35.852Z,56.43
2022-08-17T14:12:40.103Z,53.86
2022-08-17T14:27:52.908Z,53.18
2022-08-17T14:42:58.081Z,54.49
2022-08-17T14:58:00.136Z,54.21
2022-08-17T15:13:02.508Z,51.90
2022-08-17T15:28:04.936Z,53.35
2022-08-17T15:43:16.285Z,52.66
2022-08-17T15:58:19.331Z,54.75
2022-08-17T16:13:22.808Z,54.52
2022-08-17T16:28:36.247Z,55.22
2022-08-17T16:43:38.872Z,56.83
2022-08-17T16:58:41.333Z,59.11
2022-08-17T17:14:00.287Z,60.94
2022-08-17T17:29:25.645Z,63.76
2022-08-17T17:44:33.466Z,65.92
2022-08-17T17:59:43.777Z,69.36
2022-08-17T18:15:07.350Z,72.14
2022-08-17T18:30:15.646Z,74.20
2022-08-17T18:45:43.249Z,76.08
2022-08-17T19:00:48.648Z,77.41
2022-08-17T19:16:11.610Z,76.00
2022-08-17T19:31:22.446Z,77.31
2022-08-17T19:46:35.618Z,79.69
2022-08-17T20:01:53.200Z,80.40
2022-08-17T20:17:00.496Z,80.77
2022-08-17T20:32:04.505Z,80.33
2022-08-17T20:47:34.897Z,82.42
2022-08-17T21:02:37.449Z,82.18
2022-08-17T21:17:42.136Z,82.75
2022-08-17T21:32:44.907Z,82.87
2022-08-17T21:48:11.375Z,83.54
2022-08-17T22:03:24.468Z,84.04
2022-08-17T22:18:29.150Z,84.72
2022-08-17T22:33:40.170Z,84.64
2022-08-17T22:48:54.106Z,84.88
2022-08-17T23:03:58.207Z,85.27
2022-08-17T23:19:00.349Z,85.58
2022-08-17T23:34:05.649Z,85.49
2022-08-17T23:49:11.089Z,85.92
